createdAt,value
2022-08-18T00:02:30.495Z,4.85
2022-08-18T00:04:58.402Z,3.70
2022-08-18T00:07:30.250Z,3.88
2022-08-18T00:09:58.371Z,3.63
2022-08-18T00:12:26.985Z,3.90
2022-08-18T00:14:55.169Z,5.40
2022-08-18T00:17:22.525Z,3.67
2022-08-18T00:19:49.801Z,3.70
2022-08-18T00:22:20.689Z,4.47
2022-08-18T00:24:53.701Z,3.88
2022-08-18T00:27:24.735Z,3.80
2022-08-18T00:29:58.186Z,6.15
2022-08-18T00:32:47.477Z,3.92
2022-08-18T00:35:17.514Z,5.53
2022-08-18T00:37:45.035Z,4.32
2022-08-18T00:40:15.782Z,4.13
2022-08-18T00:42:58.142Z,4.65
2022-08-18T00:45:32.218Z,4.28
2022-08-18T00:47:59.712Z,4.32
2022-08-18T00:50:37.184Z,5.55
2022-08-18T00:53:25.062Z,4.60
2022-08-18T00:55:54.485Z,5.43
2022-08-18T00:58:29.400Z,5.03
2022-08-18T01:00:56.917Z,6.30
2022-08-18T01:03:24.964Z,5.13
2022-08-18T01:05:52.114Z,4.07
2022-08-18T01:08:28.712Z,4.03
2022-08-18T01:10:58.904Z,4.93
2022-08-18T01:13:29.440Z,4.03
2022-08-18T01:15:57.103Z,4.95
2022-08-18T01:18:23.720Z,4.45
2022-08-18T01:21:11.784Z,4.80
2022-08-18T01:23:39.650Z,4.95
2022-08-18T01:26:06.657Z,6.28
2022-08-18T01:28:37.518Z,4.22
2022-08-18T01:31:05.579Z,4.13
2022-08-18T01:33:38.184Z,4.57
2022-08-18T01:36:11.219Z,4.50
2022-08-18T01:38:38.077Z,5.65
2022-08-18T01:41:26.782Z,4.18
2022-08-18T01:43:51.869Z,4.68
2022-08-18T01:46:22.539Z,4.28
2022-08-18T01:48:49.252Z,4.45
2022-08-18T01:51:16.963Z,5.68
2022-08-18T01:53:43.656Z,3.97
2022-08-18T01:56:10.198Z,4.53
2022-08-18T01:58:36.992Z,4.40
2022-08-18T02:01:04.835Z,4.70
2022-08-18T02:03:39.228Z,5.05
2022-08-18T02:06:11.436Z,4.07
2022-08-18T02:08:43.549Z,4.15
2022-08-18T02:11:10.989Z,4.60
2022-08-18T02:13:37.683Z,4.60
2022-08-18T02:16:04.618Z,4.38
2022-08-18T02:18:48.009Z,4.28
2022-08-18T02:21:19.850Z,4.00
2022-08-18T02:23:53.401Z,3.97
2022-08-18T02:26:21.018Z,4.30
2022-08-18T02:28:47.644Z,4.38
2022-08-18T02:31:18.654Z,4.38
2022-08-18T02:33:51.709Z,4.22
2022-08-18T02:36:20.583Z,4.00
2022-08-18T02:38:54.763Z,4.18
2022-08-18T02:41:26.648Z,3.85
2022-08-18T02:43:56.060Z,4.65
2022-08-18T02:46:22.835Z,4.20
2022-08-18T02:48:50.167Z,4.03
2022-08-18T02:51:17.187Z,3.90
2022-08-18T02:53:46.143Z,4.00
2022-08-18T02:56:19.723Z,4.28
2022-08-18T02:59:08.294Z,3.90
2022-08-18T03:01:38.013Z,5.13
2022-08-18T03:04:06.745Z,4.22
2022-08-18T03:06:35.546Z,4.45
2022-08-18T03:09:05.593Z,4.25
2022-08-18T03:11:32.204Z,4.57
2022-08-18T03:13:59.149Z,4.40
2022-08-18T03:16:25.880Z,4.13
2022-08-18T03:18:53.434Z,5.57
2022-08-18T03:21:25.544Z,3.97
2022-08-18T03:24:00.764Z,4.28
2022-08-18T03:26:30.072Z,3.70
2022-08-18T03:28:57.840Z,5.03
2022-08-18T03:31:25.451Z,5.47
2022-08-18T03:33:59.233Z,5.38
2022-08-18T03:36:29.880Z,4.50
2022-08-18T03:38:56.557Z,4.22
2022-08-18T03:41:56.790Z,4.43
2022-08-18T03:47:10.348Z,4.13
2022-08-18T03:49:37.748Z,4.22
2022-08-18T03:52:07.533Z,4.00
2022-08-18T03:54:34.238Z,4.28
2022-08-18T03:57:01.449Z,4.85
2022-08-18T03:59:29.033Z,5.22
2022-08-18T04:01:55.738Z,4.78
2022-08-18T04:04:26.216Z,4.53
2022-08-18T04:06:57.015Z,4.65
2022-08-18T04:09:25.532Z,4.50
2022-08-18T04:11:52.245Z,4.28
2022-08-18T04:14:22.066Z,4.20
2022-08-18T04:16:48.732Z,4.38
2022-08-18T04:19:23.095Z,4.60
2022-08-18T04:21:54.428Z,4.18
2022-08-18T04:24:21.450Z,4.15
2022-08-18T04:26:49.125Z,4.97
2022-08-18T04:29:18.361Z,4.97
2022-08-18T04:31:45.573Z,5.95
2022-08-18T04:34:12.320Z,5.40
2022-08-18T04:36:39.881Z,4.88
2022-08-18T04:39:09.447Z,5.28
2022-08-18T04:41:37.650Z,4.47
2022-08-18T04:44:07.135Z,4.78
2022-08-18T04:46:42.915Z,4.93
2022-08-18T04:49:11.088Z,5.38
2022-08-18T04:52:36.588Z,5.10
2022-08-18T04:54:30.128Z,5.00
2022-08-18T04:56:56.887Z,5.45
2022-08-18T04:59:23.522Z,5.70
2022-08-18T05:01:50.155Z,5.68
2022-08-18T05:04:17.877Z,5.15
2022-08-18T05:06:45.717Z,4.80
2022-08-18T05:09:16.504Z,5.00
2022-08-18T05:11:44.133Z,6.70
2022-08-18T05:14:11.523Z,5.38
2022-08-18T05:16:48.079Z,7.05
2022-08-18T05:19:20.121Z,5.30
2022-08-18T05:21:51.380Z,5.65
2022-08-18T05:24:19.109Z,6.43
2022-08-18T05:26:46.315Z,5.82
2022-08-18T05:29:18.373Z,5.90
2022-08-18T05:31:46.925Z,5.25
2022-08-18T05:34:13.598Z,9.23
2022-08-18T05:36:49.375Z,9.82
2022-08-18T05:39:24.444Z,5.82
2022-08-18T05:41:51.119Z,9.57
2022-08-18T05:44:30.622Z,7.55
2022-08-18T05:47:07.017Z,7.47
2022-08-18T05:49:35.851Z,8.88
2022-08-18T05:52:08.603Z,10.57
2022-08-18T05:54:49.985Z,8.55
2022-08-18T05:57:21.720Z,6.90
2022-08-18T05:59:52.417Z,7.43
2022-08-18T06:03:06.988Z,7.22
2022-08-18T06:05:40.949Z,8.23
2022-08-18T06:08:13.485Z,6.63
2022-08-18T06:10:48.372Z,7.00
2022-08-18T06:13:15.577Z,8.50
2022-08-18T06:15:48.250Z,9.32
2022-08-18T06:18:31.183Z,11.07
2022-08-18T06:21:26.594Z,13.00
2022-08-18T06:24:25.251Z,9.40
2022-08-18T06:27:04.770Z,10.38
2022-08-18T06:29:57.923Z,12.73
2022-08-18T06:32:44.866Z,15.75
2022-08-18T06:35:30.408Z,14.25
2022-08-18T06:38:03.023Z,15.38
2022-08-18T06:40:29.686Z,15.90
2022-08-18T06:42:56.385Z,15.80
2022-08-18T06:45:34.009Z,15.40
2022-08-18T06:48:23.575Z,14.85
2022-08-18T06:50:58.212Z,15.75
2022-08-18T06:53:50.387Z,18.10
2022-08-18T06:56:34.463Z,18.00
2022-08-18T06:59:26.199Z,22.45
2022-08-18T07:02:22.708Z,19.88
2022-08-18T07:05:08.534Z,21.33
2022-08-18T07:07:40.346Z,22.58
2022-08-18T07:10:30.732Z,22.20
2022-08-18T07:13:28.444Z,23.35
2022-08-18T07:16:15.806Z,24.17
2022-08-18T07:18:44.054Z,21.40
2022-08-18T07:21:33.954Z,21.75
2022-08-18T07:24:23.899Z,22.15
2022-08-18T07:27:11.166Z,24.52
2022-08-18T07:29:57.939Z,26.02
2022-08-18T07:32:32.457Z,23.63
2022-08-18T07:35:02.279Z,22.45
2022-08-18T07:37:48.918Z,21.33
2022-08-18T07:40:35.185Z,22.90
2022-08-18T07:43:17.735Z,24.80
2022-08-18T07:45:47.086Z,26.05
2022-08-18T07:48:39.765Z,24.70
2022-08-18T07:51:19.850Z,25.00
2022-08-18T07:54:02.581Z,24.25
2022-08-18T07:56:41.427Z,25.15
2022-08-18T07:59:16.633Z,25.35
2022-08-18T08:02:17.398Z,25.40
2022-08-18T08:05:15.134Z,24.45
2022-08-18T08:07:59.622Z,24.50
2022-08-18T08:10:26.259Z,25.58
2022-08-18T08:13:19.368Z,26.13
2022-08-18T08:16:22.511Z,26.83
2022-08-18T08:19:12.197Z,26.08
2022-08-18T08:21:53.818Z,28.90
2022-08-18T08:24:32.056Z,25.42
2022-08-18T08:27:06.076Z,25.33
2022-08-18T08:29:44.900Z,25.10
2022-08-18T08:32:15.917Z,24.95
2022-08-18T08:34:54.264Z,24.48
2022-08-18T08:37:58.399Z,36.80
2022-08-18T08:40:30.544Z,25.63
2022-08-18T08:43:02.767Z,31.42
2022-08-18T08:45:33.908Z,25.50
2022-08-18T08:48:17.021Z,24.90
2022-08-18T08:50:49.890Z,23.45
2022-08-18T08:53:23.493Z,23.23
2022-08-18T08:55:58.836Z,25.85
2022-08-18T08:58:34.721Z,26.08
2022-08-18T09:01:02.356Z,25.95
2022-08-18T09:03:33.607Z,24.70
2022-08-18T09:06:00.309Z,27.77
2022-08-18T09:08:46.521Z,28.02
2022-08-18T09:11:33.649Z,30.45
2022-08-18T09:14:15.545Z,25.70
2022-08-18T09:16:45.172Z,30.17
2022-08-18T09:19:36.509Z,30.02
2022-08-18T09:22:33.907Z,30.15
2022-08-18T09:25:01.184Z,32.00
2022-08-18T09:28:09.985Z,35.15
2022-08-18T09:30:43.003Z,34.47
2022-08-18T09:33:21.988Z,33.50
2022-08-18T09:36:23.538Z,32.83
2022-08-18T09:38:58.888Z,32.78
2022-08-18T09:41:31.393Z,32.60
2022-08-18T09:44:08.548Z,33.80
2022-08-18T09:46:50.500Z,34.53
2022-08-18T09:49:24.199Z,34.88
2022-08-18T09:51:58.897Z,34.58
2022-08-18T09:54:32.189Z,34.17
2022-08-18T09:57:05.271Z,35.03
2022-08-18T09:59:38.433Z,35.85
2022-08-18T10:02:31.614Z,32.60
2022-08-18T10:05:19.022Z,33.88
2022-08-18T10:08:13.555Z,34.65
2022-08-18T10:11:23.789Z,35.97
2022-08-18T10:14:09.644Z,34.67
2022-08-18T10:17:23.965Z,35.70
2022-08-18T10:20:05.397Z,36.00
2022-08-18T10:22:48.358Z,36.45
2022-08-18T10:25:34.974Z,38.90
2022-08-18T10:28:02.294Z,38.75
2022-08-18T10:30:31.056Z,36.25
2022-08-18T10:33:17.215Z,36.53
2022-08-18T10:36:03.160Z,34.30
2022-08-18T10:38:45.843Z,34.50
2022-08-18T10:41:30.752Z,33.88
2022-08-18T10:44:00.003Z,33.13
2022-08-18T10:46:34.374Z,32.95
2022-08-18T10:49:15.857Z,32.13
2022-08-18T10:52:00.608Z,31.67
2022-08-18T10:57:35.273Z,32.40
2022-08-18T11:00:20.390Z,32.67
2022-08-18T11:03:02.423Z,29.20
2022-08-18T11:05:41.564Z,31.65
2022-08-18T11:11:34.401Z,28.55
2022-08-18T11:14:07.756Z,43.72
2022-08-18T11:17:07.067Z,25.95
2022-08-18T11:19:54.226Z,26.88
2022-08-18T11:22:32.545Z,26.45
2022-08-18T11:25:03.907Z,25.35
2022-08-18T11:27:35.151Z,26.52
2022-08-18T11:30:06.362Z,26.40
2022-08-18T11:35:32.741Z,26.88
2022-08-18T11:38:12.550Z,26.17
2022-08-18T11:41:10.565Z,28.05
2022-08-18T11:43:41.463Z,28.52
2022-08-18T11:46:14.301Z,28.35
2022-08-18T11:51:34.207Z,30.00
2022-08-18T11:54:19.736Z,29.40
2022-08-18T11:56:46.464Z,27.55
2022-08-18T11:59:25.580Z,26.50
2022-08-18T12:02:20.900Z,27.55
2022-08-18T12:05:02.930Z,27.85
2022-08-18T12:07:35.816Z,25.50
2022-08-18T12:10:18.987Z,26.92
2022-08-18T12:12:53.964Z,26.27
2022-08-18T12:15:46.841Z,24.08
2022-08-18T12:18:25.990Z,24.23
2022-08-18T12:20:58.597Z,24.80
2022-08-18T12:23:25.500Z,24.55
2022-08-18T12:25:52.201Z,23.95
2022-08-18T12:28:22.363Z,21.95
2022-08-18T12:30:57.146Z,24.60
2022-08-18T12:33:47.826Z,22.77
2022-08-18T12:36:13.575Z,23.17
2022-08-18T12:38:43.222Z,23.17
2022-08-18T12:41:09.993Z,22.92
2022-08-18T12:43:36.553Z,22.08
2022-08-18T12:46:04.897Z,21.75
2022-08-18T12:48:31.508Z,21.27
2022-08-18T12:50:59.833Z,22.10
2022-08-18T12:53:29.890Z,22.00
2022-08-18T12:56:27.642Z,21.88
2022-08-18T12:58:54.364Z,19.00
2022-08-18T13:01:23.384Z,19.75
2022-08-18T13:06:54.045Z,18.27
2022-08-18T13:09:42.917Z,18.40
2022-08-18T13:12:16.765Z,19.95
2022-08-18T13:14:44.125Z,18.70
2022-08-18T13:17:33.124Z,19.92
2022-08-18T13:20:13.470Z,19.73
2022-08-18T13:22:40.730Z,19.73
2022-08-18T13:25:10.831Z,19.45
2022-08-18T13:27:39.325Z,19.50
2022-08-18T13:30:29.365Z,16.98
2022-08-18T13:33:06.137Z,18.73
2022-08-18T13:35:52.467Z,18.63
2022-08-18T13:38:27.090Z,16.25
2022-08-18T13:40:58.744Z,18.20
2022-08-18T13:43:39.447Z,19.23
2022-08-18T13:46:09.249Z,21.70
2022-08-18T13:48:37.815Z,18.73
2022-08-18T13:51:06.641Z,20.33
2022-08-18T13:53:50.532Z,19.33
2022-08-18T13:56:31.477Z,18.52
2022-08-18T13:58:58.687Z,18.45
2022-08-18T14:01:44.490Z,18.73
2022-08-18T14:04:15.084Z,21.67
2022-08-18T14:06:51.071Z,20.20
2022-08-18T14:09:36.703Z,21.08
2022-08-18T14:12:23.354Z,21.33
2022-08-18T14:14:55.219Z,20.90
2022-08-18T14:17:24.360Z,20.65
2022-08-18T14:19:53.529Z,23.33
2022-08-18T14:22:22.955Z,21.70
2022-08-18T14:24:52.106Z,21.58
2022-08-18T14:27:24.079Z,25.08
2022-08-18T14:29:55.215Z,23.88
2022-08-18T14:32:29.543Z,25.50
2022-08-18T14:35:33.432Z,24.88
2022-08-18T14:37:48.670Z,27.60
2022-08-18T14:40:16.769Z,27.17
2022-08-18T14:42:54.024Z,28.38
2022-08-18T14:45:31.715Z,25.75
2022-08-18T14:48:07.502Z,24.92
2022-08-18T14:50:39.860Z,25.10
2022-08-18T14:53:06.550Z,28.50
2022-08-18T14:55:34.216Z,26.65
2022-08-18T14:58:02.842Z,26.20
2022-08-18T15:00:30.153Z,25.80
2022-08-18T15:02:59.773Z,26.60
2022-08-18T15:05:27.731Z,26.23
2022-08-18T15:07:56.087Z,25.13
2022-08-18T15:10:28.035Z,27.30
2022-08-18T15:12:55.461Z,25.83
2022-08-18T15:15:22.469Z,26.83
2022-08-18T15:17:52.431Z,27.08
2022-08-18T15:20:28.685Z,27.95
2022-08-18T15:23:00.743Z,26.45
2022-08-18T15:25:28.262Z,27.48
2022-08-18T15:27:54.794Z,27.20
2022-08-18T15:30:21.789Z,26.38
2022-08-18T15:32:50.110Z,27.40
2022-08-18T15:35:19.384Z,27.33
2022-08-18T15:37:48.120Z,26.70
2022-08-18T15:40:35.948Z,25.58
2022-08-18T15:43:09.816Z,24.33
2022-08-18T15:45:43.022Z,25.23
2022-08-18T15:48:19.959Z,27.67
2022-08-18T15:50:51.141Z,23.00
2022-08-18T15:53:24.131Z,23.67
2022-08-18T15:55:51.129Z,21.77
2022-08-18T15:58:18.227Z,23.02
2022-08-18T16:00:50.470Z,21.05
2022-08-18T16:03:18.419Z,20.05
2022-08-18T16:05:51.581Z,19.90
2022-08-18T16:08:22.299Z,17.75
2022-08-18T16:10:49.315Z,20.50
2022-08-18T16:13:16.136Z,20.05
2022-08-18T16:15:44.789Z,20.35
2022-08-18T16:18:12.280Z,21.10
2022-08-18T16:20:39.091Z,20.55
2022-08-18T16:23:05.886Z,21.65
2022-08-18T16:25:33.028Z,22.77
2022-08-18T16:28:00.674Z,22.13
2022-08-18T16:30:29.017Z,21.30
2022-08-18T16:32:59.472Z,21.10
2022-08-18T16:35:26.018Z,19.73
2022-08-18T16:37:52.855Z,20.20
2022-08-18T16:40:20.544Z,20.55
2022-08-18T16:42:48.055Z,20.48
2022-08-18T16:45:21.017Z,21.15
2022-08-18T16:47:47.567Z,19.38
2022-08-18T16:50:16.920Z,21.48
2022-08-18T16:52:44.244Z,21.63
2022-08-18T16:55:12.033Z,21.83
2022-08-18T16:57:53.362Z,20.40
2022-08-18T17:00:24.338Z,21.00
2022-08-18T17:02:50.995Z,21.17
2022-08-18T17:05:17.930Z,19.50
2022-08-18T17:07:47.609Z,20.05
2022-08-18T17:10:14.466Z,23.00
2022-08-18T17:12:41.030Z,21.13
2022-08-18T17:15:08.379Z,23.25
2022-08-18T17:17:34.917Z,24.48
2022-08-18T17:20:01.636Z,23.35
2022-08-18T17:22:33.686Z,22.15
2022-08-18T17:25:01.946Z,24.83
2022-08-18T17:27:37.563Z,25.80
2022-08-18T17:30:13.444Z,28.85
2022-08-18T17:32:53.104Z,26.52
2022-08-18T17:35:40.007Z,27.42
2022-08-18T17:38:36.013Z,28.92
2022-08-18T17:41:04.486Z,21.65
2022-08-18T17:43:34.496Z,21.40
2022-08-18T17:46:18.820Z,24.73
2022-08-18T17:49:02.620Z,28.77
2022-08-18T17:51:36.785Z,27.05
2022-08-18T17:54:27.657Z,28.73
2022-08-18T17:57:01.202Z,29.55
2022-08-18T17:59:45.657Z,24.75
2022-08-18T18:02:29.346Z,26.27
2022-08-18T18:05:01.853Z,32.38
2022-08-18T18:07:33.923Z,26.98
2022-08-18T18:10:13.086Z,31.40
2022-08-18T18:12:40.879Z,24.05
2022-08-18T18:15:11.571Z,25.65
2022-08-18T18:17:41.105Z,24.15
2022-08-18T18:20:18.149Z,26.60
2022-08-18T18:22:45.250Z,23.00
2022-08-18T18:25:28.427Z,23.60
2022-08-18T18:28:01.105Z,24.40
2022-08-18T18:30:30.486Z,24.42
2022-08-18T18:33:04.467Z,23.10
2022-08-18T18:35:53.244Z,24.85
2022-08-18T18:38:38.279Z,23.13
2022-08-18T18:41:19.799Z,26.30
2022-08-18T18:43:48.525Z,23.00
2022-08-18T18:46:24.717Z,24.65
2022-08-18T18:49:03.738Z,22.10
2022-08-18T18:52:00.535Z,22.52
2022-08-18T18:54:50.790Z,25.73
2022-08-18T18:57:26.648Z,24.27
2022-08-18T19:00:08.557Z,22.40
2022-08-18T19:03:01.092Z,22.80
2022-08-18T19:05:33.646Z,21.70
2022-08-18T19:08:21.951Z,22.10
2022-08-18T19:10:54.538Z,22.08
2022-08-18T19:13:33.054Z,23.05
2022-08-18T19:16:27.551Z,21.92
2022-08-18T19:19:37.624Z,25.48
2022-08-18T19:22:03.330Z,23.58
2022-08-18T19:24:37.469Z,24.33
2022-08-18T19:27:04.686Z,24.20
2022-08-18T19:29:39.821Z,25.33
2022-08-18T19:32:17.769Z,26.02
2022-08-18T19:34:52.522Z,23.92
2022-08-18T19:37:43.177Z,23.05
2022-08-18T19:40:24.133Z,23.63
2022-08-18T19:43:06.980Z,23.92
2022-08-18T19:45:52.783Z,24.58
2022-08-18T19:48:28.569Z,25.45
2022-08-18T19:51:02.904Z,24.25
2022-08-18T19:53:58.112Z,27.75
2022-08-18T19:56:51.843Z,27.13
2022-08-18T19:59:44.680Z,23.52
2022-08-18T20:02:47.484Z,23.33
2022-08-18T20:05:27.104Z,25.38
2022-08-18T20:08:05.774Z,22.52
2022-08-18T20:10:52.684Z,23.92
2022-08-18T20:13:32.778Z,22.77
2022-08-18T20:16:02.473Z,22.98
2022-08-18T20:18:32.538Z,24.27
2022-08-18T20:21:11.331Z,22.55
2022-08-18T20:23:56.370Z,22.73
2022-08-18T20:26:49.754Z,23.42
2022-08-18T20:29:19.723Z,23.38
2022-08-18T20:31:49.332Z,22.00
2022-08-18T20:34:21.669Z,24.00
2022-08-18T20:36:50.490Z,24.02
2022-08-18T20:39:42.271Z,22.83
2022-08-18T20:42:21.325Z,24.02
2022-08-18T20:44:47.938Z,22.70
2022-08-18T20:47:39.487Z,22.08
2022-08-18T20:50:30.596Z,22.88
2022-08-18T20:53:09.330Z,22.73
2022-08-18T20:56:31.571Z,23.48
2022-08-18T20:58:56.684Z,37.58
2022-08-18T21:01:26.858Z,30.45
2022-08-18T21:03:53.601Z,25.70
2022-08-18T21:06:31.928Z,26.63
2022-08-18T21:08:58.545Z,24.17
2022-08-18T21:11:36.142Z,24.85
2022-08-18T21:14:03.714Z,25.77
2022-08-18T21:16:38.195Z,27.88
2022-08-18T21:19:20.399Z,26.67
2022-08-18T21:21:51.790Z,24.35
2022-08-18T21:24:34.235Z,28.05
2022-08-18T21:27:25.429Z,25.48
2022-08-18T21:29:56.481Z,23.70
2022-08-18T21:32:34.701Z,24.90
2022-08-18T21:35:04.986Z,27.02
2022-08-18T21:37:33.140Z,28.45
2022-08-18T21:40:03.231Z,26.73
2022-08-18T21:42:41.968Z,26.48
2022-08-18T21:45:21.886Z,24.88
2022-08-18T21:47:58.136Z,25.17
2022-08-18T21:50:27.934Z,30.30
2022-08-18T21:52:54.703Z,30.05
2022-08-18T21:55:25.243Z,30.27
2022-08-18T21:58:10.049Z,31.02
2022-08-18T22:00:40.134Z,31.42
2022-08-18T22:03:11.694Z,30.25
2022-08-18T22:05:58.142Z,29.38
2022-08-18T22:08:29.751Z,27.45
2022-08-18T22:11:09.383Z,29.08
2022-08-18T22:13:49.676Z,28.45
2022-08-18T22:16:32.158Z,27.75
2022-08-18T22:19:09.826Z,27.10
2022-08-18T22:21:55.121Z,26.63
2022-08-18T22:24:29.734Z,24.60
2022-08-18T22:27:02.585Z,26.73
2022-08-18T22:29:57.777Z,25.00
2022-08-18T22:32:24.566Z,26.17
2022-08-18T22:34:51.450Z,25.15
2022-08-18T22:37:22.500Z,24.05
2022-08-18T22:39:59.753Z,23.92
2022-08-18T22:42:29.438Z,24.60
2022-08-18T22:45:00.137Z,26.45
2022-08-18T22:47:29.566Z,25.80
2022-08-18T22:49:56.511Z,30.58
2022-08-18T22:52:30.164Z,26.67
2022-08-18T22:54:58.991Z,23.40
2022-08-18T22:57:28.915Z,24.60
2022-08-18T22:59:57.657Z,24.95
2022-08-18T23:02:25.446Z,22.23
2022-08-18T23:04:52.033Z,22.60
2022-08-18T23:07:18.640Z,23.02
2022-08-18T23:09:45.242Z,23.10
2022-08-18T23:12:12.670Z,23.60
2022-08-18T23:14:40.889Z,23.77
2022-08-18T23:17:07.615Z,23.92
2022-08-18T23:19:34.464Z,23.48
2022-08-18T23:22:02.632Z,20.33
2022-08-18T23:24:29.484Z,22.17
2022-08-18T23:26:56.431Z,22.80
2022-08-18T23:29:23.869Z,22.92
2022-08-18T23:31:51.517Z,22.58
2022-08-18T23:34:20.163Z,24.98
2022-08-18T23:36:53.784Z,23.00
2022-08-18T23:39:20.416Z,24.80
2022-08-18T23:41:46.984Z,23.80
2022-08-18T23:44:15.733Z,22.45
2022-08-18T23:46:43.175Z,24.83
2022-08-18T23:49:12.086Z,25.80
2022-08-18T23:51:43.427Z,23.33
2022-08-18T23:54:15.067Z,21.83
2022-08-18T23:56:41.757Z,24.23
2022-08-18T23:59:08.937Z,23.65
